sensor_id;sensor_type;location;lat;lon;timestamp;P1;durP1;ratioP1;P2;durP2;ratioP2
38405;SDS011;24186;50.824;4.314;2022-07-05T00:00:54;3.45;;;1.23;;
38405;SDS011;24186;50.824;4.314;2022-07-05T00:03:20;3.53;;;1.30;;
38405;SDS011;24186;50.824;4.314;2022-07-05T00:05:46;2.28;;;1.30;;
38405;SDS011;24186;50.824;4.314;2022-07-05T00:08:12;5.65;;;1.60;;
38405;SDS011;24186;50.824;4.314;2022-07-05T00:10:37;4.68;;;1.58;;
38405;SDS011;24186;50.824;4.314;2022-07-05T00:13:04;6.95;;;1.35;;
38405;SDS011;24186;50.824;4.314;2022-07-05T00:15:30;5.57;;;1.38;;
38405;SDS011;24186;50.824;4.314;2022-07-05T00:17:56;1.88;;;1.30;;
38405;SDS011;24186;50.824;4.314;2022-07-05T00:20:22;3.13;;;1.35;;
38405;SDS011;24186;50.824;4.314;2022-07-05T00:22:47;2.17;;;1.50;;
38405;SDS011;24186;50.824;4.314;2022-07-05T00:25:14;3.08;;;1.40;;
38405;SDS011;24186;50.824;4.314;2022-07-05T00:27:40;4.45;;;1.50;;
38405;SDS011;24186;50.824;4.314;2022-07-05T00:30:06;2.88;;;1.52;;
38405;SDS011;24186;50.824;4.314;2022-07-05T00:32:32;2.50;;;1.52;;
38405;SDS011;24186;50.824;4.314;2022-07-05T00:34:58;4.43;;;1.75;;
38405;SDS011;24186;50.824;4.314;2022-07-05T00:37:24;2.58;;;1.63;;
38405;SDS011;24186;50.824;4.314;2022-07-05T00:39:50;1.13;;;1.02;;
38405;SDS011;24186;50.824;4.314;2022-07-05T00:42:16;2.55;;;1.63;;
38405;SDS011;24186;50.824;4.314;2022-07-05T00:44:42;1.38;;;1.27;;
38405;SDS011;24186;50.824;4.314;2022-07-05T00:47:09;1.70;;;1.45;;
38405;SDS011;24186;50.824;4.314;2022-07-05T00:49:36;4.50;;;1.65;;
38405;SDS011;24186;50.824;4.314;2022-07-05T00:52:03;3.33;;;1.02;;
38405;SDS011;24186;50.824;4.314;2022-07-05T00:54:32;3.35;;;1.70;;
38405;SDS011;24186;50.824;4.314;2022-07-05T00:56:59;2.03;;;1.48;;
38405;SDS011;24186;50.824;4.314;2022-07-05T00:59:26;3.80;;;1.38;;
38405;SDS011;24186;50.824;4.314;2022-07-05T01:01:52;2.63;;;1.00;;
38405;SDS011;24186;50.824;4.314;2022-07-05T01:04:18;2.22;;;1.50;;
38405;SDS011;24186;50.824;4.314;2022-07-05T01:06:45;4.25;;;1.48;;
38405;SDS011;24186;50.824;4.314;2022-07-05T01:09:14;3.13;;;1.35;;
38405;SDS011;24186;50.824;4.314;2022-07-05T01:11:44;1.85;;;1.02;;
38405;SDS011;24186;50.824;4.314;2022-07-05T01:14:18;1.33;;;1.05;;
38405;SDS011;24186;50.824;4.314;2022-07-05T01:16:45;2.40;;;1.55;;
38405;SDS011;24186;50.824;4.314;2022-07-05T01:19:12;3.22;;;1.60;;
38405;SDS011;24186;50.824;4.314;2022-07-05T01:21:42;2.08;;;1.30;;
38405;SDS011;24186;50.824;4.314;2022-07-05T01:24:10;3.03;;;1.60;;
38405;SDS011;24186;50.824;4.314;2022-07-05T01:26:37;1.80;;;1.45;;
38405;SDS011;24186;50.824;4.314;2022-07-05T01:29:04;2.45;;;1.48;;
38405;SDS011;24186;50.824;4.314;2022-07-05T01:31:31;1.52;;;1.15;;
38405;SDS011;24186;50.824;4.314;2022-07-05T01:33:57;1.52;;;1.35;;
38405;SDS011;24186;50.824;4.314;2022-07-05T01:36:23;1.83;;;1.13;;
38405;SDS011;24186;50.824;4.314;2022-07-05T01:38:49;1.50;;;1.40;;
38405;SDS011;24186;50.824;4.314;2022-07-05T01:41:15;2.00;;;1.48;;
38405;SDS011;24186;50.824;4.314;2022-07-05T01:43:41;2.75;;;1.30;;
38405;SDS011;24186;50.824;4.314;2022-07-05T01:46:07;1.85;;;1.48;;
38405;SDS011;24186;50.824;4.314;2022-07-05T01:48:35;6.05;;;1.80;;
38405;SDS011;24186;50.824;4.314;2022-07-05T01:51:05;1.48;;;1.38;;
38405;SDS011;24186;50.824;4.314;2022-07-05T01:53:38;1.17;;;1.08;;
38405;SDS011;24186;50.824;4.314;2022-07-05T01:56:06;2.42;;;1.50;;
38405;SDS011;24186;50.824;4.314;2022-07-05T01:58:32;3.15;;;1.63;;
38405;SDS011;24186;50.824;4.314;2022-07-05T02:00:58;3.60;;;1.30;;
38405;SDS011;24186;50.824;4.314;2022-07-05T02:03:26;2.53;;;1.35;;
38405;SDS011;24186;50.824;4.314;2022-07-05T02:05:52;1.42;;;1.17;;
38405;SDS011;24186;50.824;4.314;2022-07-05T02:08:20;3.97;;;1.52;;
38405;SDS011;24186;50.824;4.314;2022-07-05T02:10:46;3.35;;;1.27;;
38405;SDS011;24186;50.824;4.314;2022-07-05T02:13:12;1.77;;;1.30;;
38405;SDS011;24186;50.824;4.314;2022-07-05T02:15:39;1.08;;;0.93;;
38405;SDS011;24186;50.824;4.314;2022-07-05T02:18:06;2.92;;;1.42;;
38405;SDS011;24186;50.824;4.314;2022-07-05T02:20:33;3.50;;;1.55;;
38405;SDS011;24186;50.824;4.314;2022-07-05T02:23:00;1.80;;;1.50;;
38405;SDS011;24186;50.824;4.314;2022-07-05T02:25:26;3.92;;;1.45;;
38405;SDS011;24186;50.824;4.314;2022-07-05T02:27:52;2.50;;;1.58;;
38405;SDS011;24186;50.824;4.314;2022-07-05T02:30:18;6.20;;;1.75;;
38405;SDS011;24186;50.824;4.314;2022-07-05T02:32:44;6.15;;;1.38;;
38405;SDS011;24186;50.824;4.314;2022-07-05T02:35:11;1.50;;;1.20;;
38405;SDS011;24186;50.824;4.314;2022-07-05T02:37:37;2.88;;;1.50;;
38405;SDS011;24186;50.824;4.314;2022-07-05T02:40:04;2.42;;;1.58;;
38405;SDS011;24186;50.824;4.314;2022-07-05T02:42:35;2.67;;;1.38;;
38405;SDS011;24186;50.824;4.314;2022-07-05T02:45:01;2.30;;;1.42;;
38405;SDS011;24186;50.824;4.314;2022-07-05T02:47:30;2.30;;;1.80;;
38405;SDS011;24186;50.824;4.314;2022-07-05T02:49:57;3.20;;;1.85;;
38405;SDS011;24186;50.824;4.314;2022-07-05T02:52:23;1.48;;;1.20;;
38405;SDS011;24186;50.824;4.314;2022-07-05T02:54:49;2.85;;;1.60;;
38405;SDS011;24186;50.824;4.314;2022-07-05T02:57:15;1.60;;;1.30;;
38405;SDS011;24186;50.824;4.314;2022-07-05T02:59:41;1.90;;;1.33;;
38405;SDS011;24186;50.824;4.314;2022-07-05T03:02:07;2.58;;;1.50;;
38405;SDS011;24186;50.824;4.314;2022-07-05T03:04:32;2.08;;;1.25;;
38405;SDS011;24186;50.824;4.314;2022-07-05T03:06:58;1.67;;;1.10;;
38405;SDS011;24186;50.824;4.314;2022-07-05T03:09:24;1.48;;;1.38;;
38405;SDS011;24186;50.824;4.314;2022-07-05T03:11:50;2.75;;;1.77;;
38405;SDS011;24186;50.824;4.314;2022-07-05T03:14:16;6.82;;;1.83;;
38405;SDS011;24186;50.824;4.314;2022-07-05T03:16:43;2.38;;;1.38;;
38405;SDS011;24186;50.824;4.314;2022-07-05T03:19:09;3.08;;;1.75;;
38405;SDS011;24186;50.824;4.314;2022-07-05T03:21:35;2.58;;;1.50;;
38405;SDS011;24186;50.824;4.314;2022-07-05T03:24:01;1.63;;;1.17;;
38405;SDS011;24186;50.824;4.314;2022-07-05T03:26:27;1.95;;;1.30;;
38405;SDS011;24186;50.824;4.314;2022-07-05T03:28:53;4.22;;;1.45;;
38405;SDS011;24186;50.824;4.314;2022-07-05T03:31:19;2.65;;;1.35;;
38405;SDS011;24186;50.824;4.314;2022-07-05T03:33:44;2.55;;;1.40;;
38405;SDS011;24186;50.824;4.314;2022-07-05T03:36:10;3.75;;;1.63;;
38405;SDS011;24186;50.824;4.314;2022-07-05T03:38:36;4.35;;;1.60;;
38405;SDS011;24186;50.824;4.314;2022-07-05T03:41:01;4.82;;;1.40;;
38405;SDS011;24186;50.824;4.314;2022-07-05T03:43:27;2.90;;;1.40;;
38405;SDS011;24186;50.824;4.314;2022-07-05T03:45:53;1.77;;;1.05;;
38405;SDS011;24186;50.824;4.314;2022-07-05T03:48:20;1.65;;;1.55;;
38405;SDS011;24186;50.824;4.314;2022-07-05T03:50:46;3.15;;;1.50;;
38405;SDS011;24186;50.824;4.314;2022-07-05T03:53:12;1.40;;;1.20;;
38405;SDS011;24186;50.824;4.314;2022-07-05T03:55:38;1.65;;;1.40;;
38405;SDS011;24186;50.824;4.314;2022-07-05T03:58:04;3.53;;;1.50;;
38405;SDS011;24186;50.824;4.314;2022-07-05T04:00:30;4.00;;;2.03;;
38405;SDS011;24186;50.824;4.314;2022-07-05T04:02:57;1.40;;;1.27;;
38405;SDS011;24186;50.824;4.314;2022-07-05T04:05:23;1.70;;;1.00;;
38405;SDS011;24186;50.824;4.314;2022-07-05T04:10:15;1.88;;;1.55;;
38405;SDS011;24186;50.824;4.314;2022-07-05T04:12:42;1.63;;;1.40;;
38405;SDS011;24186;50.824;4.314;2022-07-05T04:15:08;4.47;;;1.55;;
38405;SDS011;24186;50.824;4.314;2022-07-05T04:17:34;3.80;;;1.63;;
38405;SDS011;24186;50.824;4.314;2022-07-05T04:20:00;1.67;;;1.20;;
38405;SDS011;24186;50.824;4.314;2022-07-05T04:22:26;1.17;;;1.08;;
38405;SDS011;24186;50.824;4.314;2022-07-05T04:24:52;2.05;;;1.55;;
38405;SDS011;24186;50.824;4.314;2022-07-05T04:27:36;2.22;;;1.20;;
38405;SDS011;24186;50.824;4.314;2022-07-05T04:30:02;6.43;;;1.52;;
38405;SDS011;24186;50.824;4.314;2022-07-05T04:32:28;3.50;;;1.30;;
38405;SDS011;24186;50.824;4.314;2022-07-05T04:34:54;1.58;;;1.23;;
38405;SDS011;24186;50.824;4.314;2022-07-05T04:37:19;1.80;;;1.42;;
38405;SDS011;24186;50.824;4.314;2022-07-05T04:39:45;3.63;;;1.45;;
38405;SDS011;24186;50.824;4.314;2022-07-05T04:42:10;2.25;;;1.40;;
38405;SDS011;24186;50.824;4.314;2022-07-05T04:44:36;3.75;;;1.60;;
38405;SDS011;24186;50.824;4.314;2022-07-05T04:47:02;2.67;;;1.27;;
38405;SDS011;24186;50.824;4.314;2022-07-05T04:49:28;2.50;;;1.40;;
38405;SDS011;24186;50.824;4.314;2022-07-05T04:51:54;2.30;;;1.20;;
38405;SDS011;24186;50.824;4.314;2022-07-05T04:54:19;2.13;;;1.42;;
38405;SDS011;24186;50.824;4.314;2022-07-05T04:56:45;1.45;;;1.15;;
38405;SDS011;24186;50.824;4.314;2022-07-05T04:59:11;4.35;;;1.27;;
38405;SDS011;24186;50.824;4.314;2022-07-05T05:01:37;3.30;;;1.10;;
38405;SDS011;24186;50.824;4.314;2022-07-05T05:04:03;3.42;;;1.23;;
38405;SDS011;24186;50.824;4.314;2022-07-05T05:06:28;2.88;;;1.60;;
38405;SDS011;24186;50.824;4.314;2022-07-05T05:08:54;2.05;;;1.17;;
38405;SDS011;24186;50.824;4.314;2022-07-05T05:11:20;2.33;;;1.42;;
38405;SDS011;24186;50.824;4.314;2022-07-05T05:13:45;3.85;;;1.48;;
38405;SDS011;24186;50.824;4.314;2022-07-05T05:16:12;4.72;;;1.38;;
38405;SDS011;24186;50.824;4.314;2022-07-05T05:18:38;3.10;;;1.10;;
38405;SDS011;24186;50.824;4.314;2022-07-05T05:21:03;4.22;;;1.48;;
38405;SDS011;24186;50.824;4.314;2022-07-05T05:23:29;1.42;;;1.00;;
38405;SDS011;24186;50.824;4.314;2022-07-05T05:25:56;3.67;;;1.58;;
38405;SDS011;24186;50.824;4.314;2022-07-05T05:28:22;2.60;;;1.25;;
38405;SDS011;24186;50.824;4.314;2022-07-05T05:30:48;2.45;;;1.13;;
38405;SDS011;24186;50.824;4.314;2022-07-05T05:33:13;1.42;;;1.02;;
38405;SDS011;24186;50.824;4.314;2022-07-05T05:35:39;1.42;;;1.15;;
38405;SDS011;24186;50.824;4.314;2022-07-05T05:38:05;3.22;;;0.90;;
38405;SDS011;24186;50.824;4.314;2022-07-05T05:40:30;2.85;;;1.45;;
38405;SDS011;24186;50.824;4.314;2022-07-05T05:42:58;2.22;;;1.42;;
38405;SDS011;24186;50.824;4.314;2022-07-05T05:45:24;2.80;;;1.27;;
38405;SDS011;24186;50.824;4.314;2022-07-05T05:47:57;5.20;;;1.40;;
38405;SDS011;24186;50.824;4.314;2022-07-05T05:50:25;2.40;;;1.00;;
38405;SDS011;24186;50.824;4.314;2022-07-05T05:52:51;2.70;;;1.38;;
38405;SDS011;24186;50.824;4.314;2022-07-05T05:55:18;5.70;;;1.48;;
38405;SDS011;24186;50.824;4.314;2022-07-05T05:57:44;2.92;;;1.20;;
38405;SDS011;24186;50.824;4.314;2022-07-05T06:00:10;3.03;;;1.08;;
38405;SDS011;24186;50.824;4.314;2022-07-05T06:02:37;2.28;;;1.15;;
38405;SDS011;24186;50.824;4.314;2022-07-05T06:05:04;6.97;;;1.23;;
38405;SDS011;24186;50.824;4.314;2022-07-05T06:07:30;7.07;;;1.33;;
38405;SDS011;24186;50.824;4.314;2022-07-05T06:09:55;4.70;;;1.00;;
38405;SDS011;24186;50.824;4.314;2022-07-05T06:12:21;1.55;;;1.00;;
38405;SDS011;24186;50.824;4.314;2022-07-05T06:14:47;4.30;;;1.67;;
38405;SDS011;24186;50.824;4.314;2022-07-05T06:17:13;5.25;;;1.17;;
38405;SDS011;24186;50.824;4.314;2022-07-05T06:19:38;5.78;;;1.90;;
38405;SDS011;24186;50.824;4.314;2022-07-05T06:22:04;7.13;;;1.58;;
38405;SDS011;24186;50.824;4.314;2022-07-05T06:24:30;5.88;;;1.98;;
38405;SDS011;24186;50.824;4.314;2022-07-05T06:26:55;2.88;;;1.17;;
38405;SDS011;24186;50.824;4.314;2022-07-05T06:29:21;4.15;;;1.25;;
38405;SDS011;24186;50.824;4.314;2022-07-05T06:31:47;18.42;;;1.92;;
38405;SDS011;24186;50.824;4.314;2022-07-05T06:34:13;17.15;;;1.58;;
38405;SDS011;24186;50.824;4.314;2022-07-05T06:36:38;5.25;;;1.63;;
38405;SDS011;24186;50.824;4.314;2022-07-05T06:39:04;7.32;;;1.33;;
38405;SDS011;24186;50.824;4.314;2022-07-05T06:41:30;3.60;;;1.25;;
38405;SDS011;24186;50.824;4.314;2022-07-05T06:43:55;6.20;;;1.50;;
38405;SDS011;24186;50.824;4.314;2022-07-05T06:46:22;6.35;;;1.60;;
38405;SDS011;24186;50.824;4.314;2022-07-05T06:48:48;3.10;;;1.33;;
38405;SDS011;24186;50.824;4.314;2022-07-05T06:51:14;2.45;;;1.38;;
38405;SDS011;24186;50.824;4.314;2022-07-05T06:53:39;7.95;;;1.17;;
38405;SDS011;24186;50.824;4.314;2022-07-05T06:56:05;6.53;;;1.88;;
38405;SDS011;24186;50.824;4.314;2022-07-05T06:58:31;4.05;;;1.58;;
38405;SDS011;24186;50.824;4.314;2022-07-05T07:00:57;4.13;;;1.75;;
38405;SDS011;24186;50.824;4.314;2022-07-05T07:03:22;3.28;;;1.63;;
38405;SDS011;24186;50.824;4.314;2022-07-05T07:05:49;3.08;;;1.60;;
38405;SDS011;24186;50.824;4.314;2022-07-05T07:08:15;4.60;;;1.75;;
38405;SDS011;24186;50.824;4.314;2022-07-05T07:10:59;3.65;;;1.55;;
38405;SDS011;24186;50.824;4.314;2022-07-05T07:13:25;4.30;;;1.55;;
38405;SDS011;24186;50.824;4.314;2022-07-05T07:15:51;3.35;;;1.58;;
38405;SDS011;24186;50.824;4.314;2022-07-05T07:18:17;3.28;;;1.35;;
38405;SDS011;24186;50.824;4.314;2022-07-05T07:20:42;4.65;;;1.85;;
38405;SDS011;24186;50.824;4.314;2022-07-05T07:23:08;5.90;;;2.13;;
38405;SDS011;24186;50.824;4.314;2022-07-05T07:25:34;8.88;;;1.90;;
38405;SDS011;24186;50.824;4.314;2022-07-05T07:28:00;7.50;;;2.15;;
38405;SDS011;24186;50.824;4.314;2022-07-05T07:30:26;39.88;;;4.22;;
38405;SDS011;24186;50.824;4.314;2022-07-05T07:32:53;33.83;;;3.58;;
38405;SDS011;24186;50.824;4.314;2022-07-05T07:35:20;10.43;;;2.65;;
38405;SDS011;24186;50.824;4.314;2022-07-05T07:37:46;23.75;;;3.65;;
38405;SDS011;24186;50.824;4.314;2022-07-05T07:40:12;15.13;;;2.90;;
38405;SDS011;24186;50.824;4.314;2022-07-05T07:42:38;6.93;;;2.40;;
38405;SDS011;24186;50.824;4.314;2022-07-05T07:45:04;10.52;;;2.97;;
38405;SDS011;24186;50.824;4.314;2022-07-05T07:47:34;6.35;;;1.98;;
38405;SDS011;24186;50.824;4.314;2022-07-05T07:52:26;9.75;;;2.55;;
38405;SDS011;24186;50.824;4.314;2022-07-05T07:54:52;6.20;;;1.95;;
38405;SDS011;24186;50.824;4.314;2022-07-05T07:57:17;9.32;;;2.30;;
38405;SDS011;24186;50.824;4.314;2022-07-05T07:59:43;9.02;;;2.78;;
38405;SDS011;24186;50.824;4.314;2022-07-05T08:02:09;5.93;;;2.78;;
38405;SDS011;24186;50.824;4.314;2022-07-05T08:04:35;5.25;;;1.45;;
38405;SDS011;24186;50.824;4.314;2022-07-05T08:07:01;8.65;;;2.70;;
38405;SDS011;24186;50.824;4.314;2022-07-05T08:09:28;9.43;;;2.67;;
38405;SDS011;24186;50.824;4.314;2022-07-05T08:11:55;9.50;;;2.55;;
38405;SDS011;24186;50.824;4.314;2022-07-05T08:14:22;11.25;;;2.47;;
38405;SDS011;24186;50.824;4.314;2022-07-05T08:16:48;9.85;;;2.83;;
38405;SDS011;24186;50.824;4.314;2022-07-05T08:19:14;6.10;;;2.03;;
38405;SDS011;24186;50.824;4.314;2022-07-05T08:21:59;7.15;;;2.47;;
38405;SDS011;24186;50.824;4.314;2022-07-05T08:24:26;7.40;;;2.83;;
38405;SDS011;24186;50.824;4.314;2022-07-05T08:26:52;9.05;;;2.78;;
38405;SDS011;24186;50.824;4.314;2022-07-05T08:29:18;5.55;;;2.40;;
38405;SDS011;24186;50.824;4.314;2022-07-05T08:31:48;12.05;;;2.45;;
38405;SDS011;24186;50.824;4.314;2022-07-05T08:34:15;8.25;;;3.05;;
38405;SDS011;24186;50.824;4.314;2022-07-05T08:36:43;11.40;;;3.35;;
38405;SDS011;24186;50.824;4.314;2022-07-05T08:39:09;10.25;;;2.72;;
38405;SDS011;24186;50.824;4.314;2022-07-05T08:41:37;7.32;;;2.70;;
38405;SDS011;24186;50.824;4.314;2022-07-05T08:44:04;10.32;;;3.28;;
38405;SDS011;24186;50.824;4.314;2022-07-05T08:46:31;8.77;;;2.20;;
38405;SDS011;24186;50.824;4.314;2022-07-05T08:49:01;7.72;;;3.42;;
38405;SDS011;24186;50.824;4.314;2022-07-05T08:51:28;6.72;;;2.50;;
38405;SDS011;24186;50.824;4.314;2022-07-05T08:53:57;6.80;;;2.20;;
38405;SDS011;24186;50.824;4.314;2022-07-05T08:56:23;5.00;;;2.45;;
38405;SDS011;24186;50.824;4.314;2022-07-05T08:58:48;8.75;;;2.70;;
38405;SDS011;24186;50.824;4.314;2022-07-05T09:01:14;6.78;;;2.53;;
38405;SDS011;24186;50.824;4.314;2022-07-05T09:03:46;7.22;;;2.58;;
38405;SDS011;24186;50.824;4.314;2022-07-05T09:06:17;5.97;;;2.40;;
38405;SDS011;24186;50.824;4.314;2022-07-05T09:08:47;5.38;;;2.72;;
38405;SDS011;24186;50.824;4.314;2022-07-05T09:11:16;4.80;;;2.15;;
38405;SDS011;24186;50.824;4.314;2022-07-05T09:13:47;5.63;;;2.00;;
38405;SDS011;24186;50.824;4.314;2022-07-05T09:16:14;7.43;;;2.28;;
38405;SDS011;24186;50.824;4.314;2022-07-05T09:21:13;4.32;;;2.05;;
38405;SDS011;24186;50.824;4.314;2022-07-05T09:23:53;10.55;;;3.00;;
38405;SDS011;24186;50.824;4.314;2022-07-05T09:26:20;5.00;;;2.47;;
38405;SDS011;24186;50.824;4.314;2022-07-05T09:28:54;8.88;;;2.92;;
38405;SDS011;24186;50.824;4.314;2022-07-05T09:31:28;4.22;;;2.10;;
38405;SDS011;24186;50.824;4.314;2022-07-05T09:33:56;6.68;;;2.42;;
38405;SDS011;24186;50.824;4.314;2022-07-05T09:39:41;4.40;;;2.50;;
38405;SDS011;24186;50.824;4.314;2022-07-05T09:42:21;5.72;;;2.28;;
38405;SDS011;24186;50.824;4.314;2022-07-05T09:44:55;6.22;;;2.03;;
38405;SDS011;24186;50.824;4.314;2022-07-05T09:47:25;3.78;;;2.28;;
38405;SDS011;24186;50.824;4.314;2022-07-05T09:49:53;3.85;;;2.45;;
38405;SDS011;24186;50.824;4.314;2022-07-05T09:52:30;6.85;;;2.20;;
38405;SDS011;24186;50.824;4.314;2022-07-05T09:55:03;6.90;;;2.83;;
38405;SDS011;24186;50.824;4.314;2022-07-05T09:57:43;4.40;;;2.28;;
38405;SDS011;24186;50.824;4.314;2022-07-05T10:00:11;5.47;;;2.58;;
38405;SDS011;24186;50.824;4.314;2022-07-05T10:02:42;6.90;;;2.72;;
38405;SDS011;24186;50.824;4.314;2022-07-05T10:05:09;9.70;;;3.55;;
38405;SDS011;24186;50.824;4.314;2022-07-05T10:07:35;7.45;;;3.53;;
38405;SDS011;24186;50.824;4.314;2022-07-05T10:10:03;10.40;;;4.10;;
38405;SDS011;24186;50.824;4.314;2022-07-05T10:12:30;6.28;;;2.97;;
38405;SDS011;24186;50.824;4.314;2022-07-05T10:15:00;6.53;;;3.50;;
38405;SDS011;24186;50.824;4.314;2022-07-05T10:17:26;6.20;;;3.58;;
38405;SDS011;24186;50.824;4.314;2022-07-05T10:19:53;5.18;;;3.20;;
38405;SDS011;24186;50.824;4.314;2022-07-05T10:22:21;10.10;;;4.35;;
38405;SDS011;24186;50.824;4.314;2022-07-05T10:24:47;6.22;;;3.72;;
38405;SDS011;24186;50.824;4.314;2022-07-05T10:27:14;4.80;;;3.10;;
38405;SDS011;24186;50.824;4.314;2022-07-05T10:29:41;5.50;;;3.50;;
38405;SDS011;24186;50.824;4.314;2022-07-05T10:32:08;5.55;;;3.90;;
38405;SDS011;24186;50.824;4.314;2022-07-05T10:34:35;6.78;;;3.72;;
38405;SDS011;24186;50.824;4.314;2022-07-05T10:37:02;6.20;;;3.97;;
38405;SDS011;24186;50.824;4.314;2022-07-05T10:39:30;6.07;;;3.30;;
38405;SDS011;24186;50.824;4.314;2022-07-05T10:41:56;5.90;;;3.40;;
38405;SDS011;24186;50.824;4.314;2022-07-05T10:44:30;7.63;;;3.60;;
38405;SDS011;24186;50.824;4.314;2022-07-05T10:47:08;5.15;;;2.88;;
38405;SDS011;24186;50.824;4.314;2022-07-05T10:49:35;8.30;;;3.00;;
38405;SDS011;24186;50.824;4.314;2022-07-05T10:52:02;7.50;;;2.63;;
38405;SDS011;24186;50.824;4.314;2022-07-05T10:54:29;4.45;;;2.75;;
38405;SDS011;24186;50.824;4.314;2022-07-05T11:00:08;4.18;;;2.67;;
38405;SDS011;24186;50.824;4.314;2022-07-05T11:02:33;5.15;;;2.67;;
38405;SDS011;24186;50.824;4.314;2022-07-05T11:05:00;5.70;;;2.60;;
38405;SDS011;24186;50.824;4.314;2022-07-05T11:07:56;5.70;;;2.35;;
38405;SDS011;24186;50.824;4.314;2022-07-05T11:10:28;5.43;;;1.92;;
38405;SDS011;24186;50.824;4.314;2022-07-05T11:12:56;5.25;;;2.78;;
38405;SDS011;24186;50.824;4.314;2022-07-05T11:15:22;4.00;;;2.00;;
38405;SDS011;24186;50.824;4.314;2022-07-05T11:17:48;5.18;;;2.17;;
38405;SDS011;24186;50.824;4.314;2022-07-05T11:20:14;4.63;;;1.98;;
38405;SDS011;24186;50.824;4.314;2022-07-05T11:23:06;2.85;;;1.95;;
38405;SDS011;24186;50.824;4.314;2022-07-05T11:25:34;4.32;;;2.35;;
38405;SDS011;24186;50.824;4.314;2022-07-05T11:28:16;3.85;;;1.55;;
38405;SDS011;24186;50.824;4.314;2022-07-05T11:30:44;4.05;;;1.50;;
38405;SDS011;24186;50.824;4.314;2022-07-05T11:33:27;3.03;;;1.50;;
38405;SDS011;24186;50.824;4.314;2022-07-05T11:35:57;4.07;;;1.40;;
38405;SDS011;24186;50.824;4.314;2022-07-05T11:38:24;3.80;;;1.48;;
38405;SDS011;24186;50.824;4.314;2022-07-05T11:40:50;4.50;;;1.65;;
38405;SDS011;24186;50.824;4.314;2022-07-05T11:43:24;1.90;;;1.33;;
38405;SDS011;24186;50.824;4.314;2022-07-05T11:45:58;4.00;;;1.58;;
38405;SDS011;24186;50.824;4.314;2022-07-05T11:50:51;3.92;;;1.67;;
38405;SDS011;24186;50.824;4.314;2022-07-05T11:53:29;4.03;;;1.50;;
38405;SDS011;24186;50.824;4.314;2022-07-05T11:55:59;3.17;;;1.70;;
38405;SDS011;24186;50.824;4.314;2022-07-05T12:00:59;4.13;;;1.70;;
38405;SDS011;24186;50.824;4.314;2022-07-05T12:03:25;2.33;;;1.60;;
38405;SDS011;24186;50.824;4.314;2022-07-05T12:05:51;3.78;;;1.67;;
38405;SDS011;24186;50.824;4.314;2022-07-05T12:08:23;3.92;;;1.50;;
38405;SDS011;24186;50.824;4.314;2022-07-05T12:10:50;5.18;;;1.42;;
38405;SDS011;24186;50.824;4.314;2022-07-05T12:13:48;1.50;;;1.23;;
38405;SDS011;24186;50.824;4.314;2022-07-05T12:16:15;2.17;;;1.17;;
38405;SDS011;24186;50.824;4.314;2022-07-05T12:18:51;10.45;;;2.08;;
38405;SDS011;24186;50.824;4.314;2022-07-05T12:21:20;5.53;;;1.95;;
38405;SDS011;24186;50.824;4.314;2022-07-05T12:23:47;2.47;;;1.52;;
38405;SDS011;24186;50.824;4.314;2022-07-05T12:26:15;3.40;;;1.52;;
38405;SDS011;24186;50.824;4.314;2022-07-05T12:28:42;5.85;;;1.80;;
38405;SDS011;24186;50.824;4.314;2022-07-05T12:31:21;4.10;;;1.80;;
38405;SDS011;24186;50.824;4.314;2022-07-05T12:33:48;3.42;;;1.40;;
38405;SDS011;24186;50.824;4.314;2022-07-05T12:36:16;5.47;;;1.52;;
38405;SDS011;24186;50.824;4.314;2022-07-05T12:38:44;5.57;;;1.80;;
38405;SDS011;24186;50.824;4.314;2022-07-05T12:41:10;5.90;;;1.45;;
38405;SDS011;24186;50.824;4.314;2022-07-05T12:43:49;3.80;;;1.38;;
38405;SDS011;24186;50.824;4.314;2022-07-05T12:46:15;2.53;;;1.40;;
38405;SDS011;24186;50.824;4.314;2022-07-05T12:48:41;2.80;;;1.55;;
38405;SDS011;24186;50.824;4.314;2022-07-05T12:51:07;4.63;;;1.80;;
38405;SDS011;24186;50.824;4.314;2022-07-05T12:53:34;3.63;;;1.20;;
38405;SDS011;24186;50.824;4.314;2022-07-05T12:56:27;3.30;;;1.80;;
38405;SDS011;24186;50.824;4.314;2022-07-05T12:59:11;5.47;;;1.95;;
38405;SDS011;24186;50.824;4.314;2022-07-05T13:01:38;3.03;;;1.85;;
38405;SDS011;24186;50.824;4.314;2022-07-05T13:04:11;5.90;;;1.98;;
38405;SDS011;24186;50.824;4.314;2022-07-05T13:06:40;3.78;;;2.20;;
38405;SDS011;24186;50.824;4.314;2022-07-05T13:14:38;5.03;;;1.95;;
38405;SDS011;24186;50.824;4.314;2022-07-05T13:17:06;2.43;;;1.40;;
38405;SDS011;24186;50.824;4.314;2022-07-05T13:19:33;7.47;;;1.50;;
38405;SDS011;24186;50.824;4.314;2022-07-05T13:21:59;4.28;;;1.92;;
38405;SDS011;24186;50.824;4.314;2022-07-05T13:24:25;2.67;;;1.77;;
38405;SDS011;24186;50.824;4.314;2022-07-05T13:26:50;2.53;;;1.90;;
38405;SDS011;24186;50.824;4.314;2022-07-05T13:29:16;9.50;;;2.15;;
38405;SDS011;24186;50.824;4.314;2022-07-05T13:31:42;3.92;;;1.80;;
38405;SDS011;24186;50.824;4.314;2022-07-05T13:34:08;2.33;;;1.40;;
38405;SDS011;24186;50.824;4.314;2022-07-05T13:36:34;2.72;;;1.70;;
38405;SDS011;24186;50.824;4.314;2022-07-05T13:39:00;2.15;;;1.52;;
38405;SDS011;24186;50.824;4.314;2022-07-05T13:41:26;5.00;;;1.83;;
38405;SDS011;24186;50.824;4.314;2022-07-05T13:43:52;2.75;;;1.17;;
38405;SDS011;24186;50.824;4.314;2022-07-05T13:46:17;3.60;;;1.60;;
38405;SDS011;24186;50.824;4.314;2022-07-05T13:48:43;4.15;;;1.67;;
38405;SDS011;24186;50.824;4.314;2022-07-05T13:51:09;2.25;;;1.27;;
38405;SDS011;24186;50.824;4.314;2022-07-05T13:53:35;5.10;;;1.77;;
38405;SDS011;24186;50.824;4.314;2022-07-05T13:56:02;5.57;;;1.95;;
38405;SDS011;24186;50.824;4.314;2022-07-05T13:58:29;4.82;;;1.30;;
38405;SDS011;24186;50.824;4.314;2022-07-05T14:00:55;6.60;;;1.20;;
38405;SDS011;24186;50.824;4.314;2022-07-05T14:03:20;4.03;;;1.42;;
38405;SDS011;24186;50.824;4.314;2022-07-05T14:05:46;3.40;;;1.55;;
38405;SDS011;24186;50.824;4.314;2022-07-05T14:08:12;3.42;;;1.48;;
38405;SDS011;24186;50.824;4.314;2022-07-05T14:10:39;3.20;;;1.25;;
38405;SDS011;24186;50.824;4.314;2022-07-05T14:13:05;5.72;;;1.55;;
38405;SDS011;24186;50.824;4.314;2022-07-05T14:15:31;4.07;;;1.42;;
38405;SDS011;24186;50.824;4.314;2022-07-05T14:17:57;5.65;;;1.10;;
38405;SDS011;24186;50.824;4.314;2022-07-05T14:20:27;3.42;;;1.67;;
38405;SDS011;24186;50.824;4.314;2022-07-05T14:22:54;3.35;;;1.50;;
38405;SDS011;24186;50.824;4.314;2022-07-05T14:25:20;4.60;;;1.50;;
38405;SDS011;24186;50.824;4.314;2022-07-05T14:27:46;2.55;;;1.17;;
38405;SDS011;24186;50.824;4.314;2022-07-05T14:30:11;3.65;;;1.05;;
38405;SDS011;24186;50.824;4.314;2022-07-05T14:32:37;2.30;;;1.25;;
38405;SDS011;24186;50.824;4.314;2022-07-05T14:35:04;5.45;;;1.38;;
38405;SDS011;24186;50.824;4.314;2022-07-05T14:37:30;5.03;;;0.90;;
38405;SDS011;24186;50.824;4.314;2022-07-05T14:39:56;3.33;;;1.05;;
38405;SDS011;24186;50.824;4.314;2022-07-05T14:42:21;2.15;;;1.45;;
38405;SDS011;24186;50.824;4.314;2022-07-05T14:44:47;2.92;;;1.30;;
38405;SDS011;24186;50.824;4.314;2022-07-05T14:47:13;2.08;;;1.17;;
38405;SDS011;24186;50.824;4.314;2022-07-05T14:49:39;3.38;;;1.30;;
38405;SDS011;24186;50.824;4.314;2022-07-05T14:52:05;3.00;;;1.10;;
38405;SDS011;24186;50.824;4.314;2022-07-05T14:54:31;3.53;;;0.98;;
38405;SDS011;24186;50.824;4.314;2022-07-05T14:56:56;2.25;;;0.98;;
38405;SDS011;24186;50.824;4.314;2022-07-05T14:59:22;4.13;;;1.50;;
38405;SDS011;24186;50.824;4.314;2022-07-05T15:01:48;5.18;;;1.35;;
38405;SDS011;24186;50.824;4.314;2022-07-05T15:04:14;3.83;;;1.65;;
38405;SDS011;24186;50.824;4.314;2022-07-05T15:06:39;4.45;;;1.23;;
38405;SDS011;24186;50.824;4.314;2022-07-05T15:09:06;5.38;;;1.42;;
38405;SDS011;24186;50.824;4.314;2022-07-05T15:11:32;2.83;;;1.13;;
38405;SDS011;24186;50.824;4.314;2022-07-05T15:13:58;3.78;;;1.60;;